Time;durP1;ratioP1;P1;durP2;ratioP2;P2;SDS_P1;SDS_P2;PMS_P1;PMS_P2;Temp;Humidity;BMP_temperature;BMP_pressure;BME280_temperature;BME280_humidity;BME280_pressure;Samples;Min_cycle;Max_cycle;Signal;HPM_P1;HPM_P2
2022/05/31 00:02:25;;;;;;;2.13;1.80;;;11.20;68.40;;;;;;5054975;28;20032;-89
2022/05/31 00:04:52;;;;;;;2.67;2.10;;;11.20;68.50;;;;;;5036201;28;20033;-89
2022/05/31 00:07:18;;;;;;;4.60;2.10;;;11.20;68.70;;;;;;5037769;28;20029;-89
2022/05/31 00:09:45;;;;;;;2.03;1.88;;;11.10;68.70;;;;;;5036597;28;20025;-89
2022/05/31 00:12:11;;;;;;;2.33;2.08;;;11.10;68.80;;;;;;5054052;28;20028;-89
2022/05/31 00:14:38;;;;;;;3.83;2.15;;;11.10;68.90;;;;;;5036139;28;20116;-89
2022/05/31 00:17:04;;;;;;;2.28;2.05;;;11.00;68.90;;;;;;5036165;28;20136;-89
2022/05/31 00:19:30;;;;;;;2.05;1.70;;;11.00;68.90;;;;;;5054037;28;20440;-89
2022/05/31 00:22:09;;;;;;;2.20;2.00;;;10.90;68.90;;;;;;5036258;28;20489;-89
2022/05/31 00:24:35;;;;;;;2.28;1.88;;;10.80;69.20;;;;;;5035568;28;20444;-89
2022/05/31 00:27:03;;;;;;;2.08;1.88;;;10.70;69.20;;;;;;5036246;28;20032;-89
2022/05/31 00:29:30;;;;;;;3.00;2.13;;;10.70;69.50;;;;;;5035924;28;20025;-89
2022/05/31 00:31:58;;;;;;;2.00;1.90;;;10.80;69.70;;;;;;5051009;28;20028;-89
2022/05/31 00:34:24;;;;;;;2.05;1.52;;;10.70;69.80;;;;;;5054594;28;20024;-89
2022/05/31 00:36:50;;;;;;;3.30;1.70;;;10.70;69.70;;;;;;5036353;28;20112;-89
2022/05/31 00:39:16;;;;;;;2.10;1.90;;;10.70;69.80;;;;;;5035492;28;20036;-88
2022/05/31 00:41:42;;;;;;;3.90;1.80;;;10.70;70.00;;;;;;5034755;28;20032;-88
2022/05/31 00:44:11;;;;;;;5.15;1.80;;;10.70;70.10;;;;;;5035808;28;20052;-88
2022/05/31 00:46:43;;;;;;;2.30;2.10;;;10.70;70.20;;;;;;5035395;28;20029;-88
2022/05/31 00:49:12;;;;;;;3.10;1.80;;;10.70;70.30;;;;;;5035952;28;20412;-89
2022/05/31 00:51:49;;;;;;;2.10;2.00;;;10.70;70.30;;;;;;5035182;28;20033;-88
2022/05/31 00:54:17;;;;;;;1.80;1.70;;;10.80;70.50;;;;;;5035226;28;20120;-88
2022/05/31 00:56:44;;;;;;;2.10;2.00;;;10.70;70.30;;;;;;5052095;28;20052;-88
2022/05/31 00:59:16;;;;;;;2.97;1.88;;;10.70;70.50;;;;;;5055533;28;20033;-89
2022/05/31 01:01:43;;;;;;;2.83;1.70;;;10.70;70.60;;;;;;5055479;28;20085;-88
2022/05/31 01:04:10;;;;;;;2.13;1.83;;;10.70;70.60;;;;;;5054906;28;20029;-88
2022/05/31 01:06:36;;;;;;;1.77;1.63;;;10.70;70.60;;;;;;5054773;28;20052;-89
2022/05/31 01:09:03;;;;;;;4.00;1.77;;;10.70;70.70;;;;;;5070000;28;20059;-89
2022/05/31 01:11:32;;;;;;;3.53;1.90;;;10.70;70.80;;;;;;5053051;28;20024;-89
2022/05/31 01:13:58;;;;;;;1.83;1.70;;;10.70;70.80;;;;;;5033795;28;20022;-87
2022/05/31 01:16:24;;;;;;;2.15;1.95;;;10.70;70.70;;;;;;5054198;28;20438;-89
2022/05/31 01:18:50;;;;;;;3.60;1.92;;;10.70;70.80;;;;;;5034933;28;20035;-89
2022/05/31 01:21:15;;;;;;;1.90;1.65;;;10.70;70.90;;;;;;5035272;28;20545;-89
2022/05/31 01:24:20;;;;;;;2.25;2.05;;;10.60;70.90;;;;;;5034921;28;20033;-88
2022/05/31 01:26:59;;;;;;;3.15;1.90;;;10.60;71.30;;;;;;5034940;28;20024;-88
2022/05/31 01:29:33;;;;;;;2.63;1.95;;;10.60;71.10;;;;;;5035008;28;20724;-89
2022/05/31 01:32:02;;;;;;;2.88;2.13;;;10.50;71.20;;;;;;5034894;28;20040;-89
2022/05/31 01:34:30;;;;;;;2.00;1.90;;;10.60;71.10;;;;;;5034269;28;20102;-88
2022/05/31 01:36:58;;;;;;;4.97;2.03;;;10.50;71.00;;;;;;5048996;28;20396;-89
2022/05/31 01:39:33;;;;;;;2.88;1.95;;;10.50;71.10;;;;;;5047969;28;20017;-88
2022/05/31 01:42:30;;;;;;;2.85;1.98;;;10.50;71.20;;;;;;5052077;28;20108;-89
2022/05/31 01:45:10;;;;;;;6.15;1.92;;;10.40;71.30;;;;;;5033922;28;20103;-88
2022/05/31 01:47:36;;;;;;;2.00;1.90;;;10.30;71.30;;;;;;5035386;28;20029;-89
2022/05/31 01:50:06;;;;;;;2.33;1.90;;;10.30;71.40;;;;;;5034444;28;20029;-89
2022/05/31 01:52:33;;;;;;;4.20;2.03;;;10.30;71.70;;;;;;5041786;28;20149;-89
2022/05/31 01:54:59;;;;;;;2.35;1.90;;;10.20;71.80;;;;;;5049546;28;20124;-89
2022/05/31 01:57:26;;;;;;;3.60;1.90;;;10.20;71.90;;;;;;5052106;28;20033;-89
2022/05/31 02:00:01;;;;;;;2.13;1.95;;;10.20;72.00;;;;;;5052411;28;20025;-88
2022/05/31 02:02:27;;;;;;;2.85;1.85;;;10.20;72.20;;;;;;5034121;28;20411;-89
2022/05/31 02:04:53;;;;;;;2.60;2.03;;;10.10;72.10;;;;;;5051571;28;20033;-88
2022/05/31 02:07:21;;;;;;;2.78;2.03;;;10.20;72.40;;;;;;5034438;28;20029;-89
2022/05/31 02:09:49;;;;;;;2.90;1.80;;;10.20;72.50;;;;;;5034112;28;20025;-89
2022/05/31 02:12:17;;;;;;;4.30;2.03;;;10.20;72.40;;;;;;5030870;28;20029;-89
2022/05/31 02:14:43;;;;;;;4.30;2.20;;;10.10;72.30;;;;;;5030550;28;20489;-89
2022/05/31 02:17:09;;;;;;;2.58;2.30;;;10.10;72.40;;;;;;5052516;28;20084;-90
2022/05/31 02:19:36;;;;;;;2.65;2.30;;;10.10;72.60;;;;;;5034059;28;20035;-88
2022/05/31 02:22:05;;;;;;;4.70;2.20;;;10.10;72.70;;;;;;5034246;28;20052;-89
2022/05/31 02:24:31;;;;;;;2.25;1.92;;;10.00;72.90;;;;;;5033790;28;20017;-89
2022/05/31 02:26:57;;;;;;;2.30;2.15;;;10.00;73.00;;;;;;5033146;28;20021;-89
2022/05/31 02:29:27;;;;;;;2.58;2.38;;;10.00;73.10;;;;;;5034050;28;20029;-89
2022/05/31 02:31:55;;;;;;;3.10;2.58;;;9.80;73.30;;;;;;5064043;28;20039;-89
2022/05/31 02:34:24;;;;;;;2.50;2.13;;;9.90;73.50;;;;;;5071525;28;20025;-88
2022/05/31 02:36:50;;;;;;;2.47;2.28;;;9.80;73.60;;;;;;5037891;28;20481;-89
2022/05/31 02:39:16;;;;;;;2.95;2.08;;;9.80;73.60;;;;;;5033716;28;20033;-89
2022/05/31 02:41:42;;;;;;;3.97;2.00;;;9.90;73.70;;;;;;5032683;28;20524;-89
2022/05/31 02:44:08;;;;;;;2.20;2.00;;;9.90;73.60;;;;;;5030420;28;20033;-88
2022/05/31 02:46:34;;;;;;;2.40;2.10;;;9.90;73.70;;;;;;5029946;28;20037;-89
2022/05/31 02:49:00;;;;;;;2.13;2.00;;;9.80;73.70;;;;;;5050524;28;20028;-88
2022/05/31 02:51:26;;;;;;;5.38;2.40;;;9.90;73.90;;;;;;5053273;28;20489;-89
2022/05/31 02:53:53;;;;;;;2.47;2.25;;;9.80;73.90;;;;;;5053417;28;20089;-88
2022/05/31 02:56:19;;;;;;;4.15;2.13;;;9.80;73.90;;;;;;5052765;28;20029;-88
2022/05/31 02:58:44;;;;;;;2.63;2.20;;;9.80;73.90;;;;;;5059455;28;20066;-89
2022/05/31 03:01:25;;;;;;;2.75;2.40;;;9.80;74.00;;;;;;5060027;28;20024;-89
2022/05/31 03:03:52;;;;;;;2.75;2.50;;;9.70;73.90;;;;;;5078299;28;20480;-88
2022/05/31 03:06:18;;;;;;;2.08;1.95;;;9.60;73.70;;;;;;5059276;28;20047;-88
2022/05/31 03:08:44;;;;;;;3.08;1.98;;;9.50;73.70;;;;;;5059080;28;20114;-88
2022/05/31 03:11:31;;;;;;;3.63;2.35;;;9.40;73.90;;;;;;5057001;28;20108;-88
2022/05/31 03:14:12;;;;;;;3.10;2.38;;;9.30;74.30;;;;;;5057917;28;20025;-89
2022/05/31 03:16:41;;;;;;;3.28;2.50;;;9.30;74.90;;;;;;5039598;28;20057;-89
2022/05/31 03:19:12;;;;;;;2.50;2.30;;;9.30;75.10;;;;;;5039883;28;20107;-88
2022/05/31 03:21:43;;;;;;;4.20;2.25;;;9.30;75.10;;;;;;5039730;28;20135;-89
2022/05/31 03:24:22;;;;;;;3.28;2.40;;;9.30;75.00;;;;;;5039791;28;20032;-88
2022/05/31 03:26:51;;;;;;;2.47;2.25;;;9.30;75.10;;;;;;5057927;28;20174;-88
2022/05/31 03:29:17;;;;;;;2.22;2.10;;;9.20;75.20;;;;;;5050932;28;20029;-88
2022/05/31 03:31:42;;;;;;;2.97;2.35;;;9.20;75.40;;;;;;5077880;28;20119;-89
2022/05/31 03:34:08;;;;;;;2.42;2.22;;;9.20;75.60;;;;;;5059734;28;20550;-89
2022/05/31 03:36:34;;;;;;;2.75;2.25;;;9.20;75.80;;;;;;5046970;28;20021;-89
2022/05/31 03:39:00;;;;;;;3.50;2.42;;;9.20;75.90;;;;;;5041909;28;20029;-88
2022/05/31 03:41:26;;;;;;;3.65;2.38;;;9.20;75.80;;;;;;5038215;28;20419;-88
2022/05/31 03:43:51;;;;;;;2.83;2.25;;;9.20;75.80;;;;;;5038579;28;20162;-88
2022/05/31 03:46:17;;;;;;;2.72;2.40;;;9.20;75.90;;;;;;5040560;28;20056;-88
2022/05/31 03:48:43;;;;;;;3.28;2.40;;;9.20;76.00;;;;;;5040928;28;20033;-89
2022/05/31 03:51:10;;;;;;;2.55;2.25;;;9.10;76.10;;;;;;5041224;28;20020;-88
2022/05/31 03:53:37;;;;;;;3.03;2.30;;;9.10;76.30;;;;;;5041747;28;20032;-88
2022/05/31 03:56:05;;;;;;;3.35;2.63;;;9.10;76.50;;;;;;5041480;28;20496;-89
2022/05/31 03:58:32;;;;;;;2.70;2.50;;;9.00;76.70;;;;;;5063331;28;20066;-88
2022/05/31 04:00:58;;;;;;;2.70;2.50;;;9.10;76.90;;;;;;5080934;28;20013;-88
2022/05/31 04:03:25;;;;;;;2.60;2.03;;;9.10;77.00;;;;;;5063390;28;20032;-87
2022/05/31 04:05:51;;;;;;;4.05;2.38;;;9.10;77.00;;;;;;5064131;28;20013;-88
2022/05/31 04:08:19;;;;;;;3.45;2.30;;;9.20;77.10;;;;;;5061920;28;20032;-88
2022/05/31 04:10:45;;;;;;;3.15;2.65;;;9.20;77.10;;;;;;5059111;28;20005;-87
2022/05/31 04:13:11;;;;;;;3.35;2.60;;;9.20;77.00;;;;;;5062242;28;20028;-88
2022/05/31 04:15:37;;;;;;;3.45;2.28;;;9.20;77.00;;;;;;5064981;28;20081;-89
2022/05/31 04:18:04;;;;;;;3.03;2.40;;;9.20;77.20;;;;;;5036630;28;20078;-88
2022/05/31 04:20:30;;;;;;;2.40;2.20;;;9.20;77.40;;;;;;5035435;28;20028;-88
2022/05/31 04:23:58;;;;;;;2.08;1.83;;;9.20;77.60;;;;;;5035745;28;20021;-88
2022/05/31 04:25:42;;;;;;;2.47;2.28;;;9.30;77.90;;;;;;5054006;28;20055;-89
2022/05/31 04:28:09;;;;;;;3.00;2.50;;;9.40;77.80;;;;;;5037054;28;20025;-88
2022/05/31 04:30:36;;;;;;;2.40;2.20;;;9.50;77.70;;;;;;5036491;28;20025;-89
2022/05/31 04:33:02;;;;;;;2.78;2.38;;;9.50;77.70;;;;;;5056458;28;20025;-89
2022/05/31 04:35:28;;;;;;;3.33;2.60;;;9.50;78.00;;;;;;5041155;28;20079;-88
2022/05/31 04:37:54;;;;;;;5.40;2.58;;;9.60;77.90;;;;;;5047334;28;20025;-88
2022/05/31 04:40:19;;;;;;;4.78;2.92;;;9.60;77.90;;;;;;5035711;28;20103;-89
2022/05/31 04:42:45;;;;;;;2.90;2.55;;;9.60;78.00;;;;;;5035862;28;20028;-89
2022/05/31 04:45:11;;;;;;;4.00;3.00;;;9.60;78.10;;;;;;5035588;28;20025;-89
2022/05/31 04:47:37;;;;;;;6.80;2.83;;;9.70;78.30;;;;;;5020772;28;20053;-89
2022/05/31 04:50:03;;;;;;;4.05;3.30;;;9.80;78.50;;;;;;5078739;23;20167;-84
2022/05/31 04:52:29;;;;;;;3.45;2.90;;;10.00;78.50;;;;;;5067551;28;20482;-85
2022/05/31 04:54:54;;;;;;;3.92;3.33;;;10.10;78.40;;;;;;5058578;28;20096;-85
2022/05/31 04:57:20;;;;;;;3.30;3.00;;;10.20;78.20;;;;;;5066316;28;20040;-85
2022/05/31 04:59:46;;;;;;;3.55;2.80;;;10.30;78.20;;;;;;5042464;28;20056;-84
2022/05/31 05:02:12;;;;;;;3.22;2.92;;;10.50;78.40;;;;;;5028686;28;20021;-85
2022/05/31 05:04:38;;;;;;;3.35;3.05;;;10.60;78.50;;;;;;5028270;28;20352;-84
2022/05/31 05:07:04;;;;;;;5.50;3.00;;;10.70;78.60;;;;;;5027865;28;20433;-84
2022/05/31 05:09:30;;;;;;;3.78;3.00;;;10.90;78.40;;;;;;5027796;28;20132;-84
2022/05/31 05:11:56;;;;;;;3.67;3.20;;;11.00;78.50;;;;;;5027074;28;20079;-85
2022/05/31 05:14:22;;;;;;;2.63;2.40;;;11.20;78.50;;;;;;5030561;28;20031;-84
2022/05/31 05:16:48;;;;;;;3.63;2.47;;;11.40;78.60;;;;;;5046986;28;20021;-85
2022/05/31 05:19:16;;;;;;;3.75;2.38;;;11.60;78.60;;;;;;5046546;28;20025;-85
2022/05/31 05:21:42;;;;;;;3.78;2.28;;;11.70;78.50;;;;;;5037451;28;20044;-83
2022/05/31 05:24:08;;;;;;;2.40;2.20;;;11.80;78.60;;;;;;5046721;28;20409;-84
2022/05/31 05:26:35;;;;;;;2.50;2.17;;;11.90;78.40;;;;;;5041432;28;20057;-84
2022/05/31 05:31:44;;;;;;;4.07;2.65;;;12.10;78.20;;;;;;5063888;28;20036;-84
2022/05/31 05:34:10;;;;;;;4.80;2.58;;;12.30;78.80;;;;;;5063339;28;20470;-84
2022/05/31 05:36:35;;;;;;;3.42;2.63;;;12.40;78.30;;;;;;5044211;28;20017;-84
2022/05/31 05:39:01;;;;;;;3.13;2.50;;;12.40;78.10;;;;;;5043274;28;20023;-84
2022/05/31 05:41:29;;;;;;;3.30;2.55;;;12.50;78.20;;;;;;5042874;28;20035;-85
2022/05/31 05:43:54;;;;;;;2.53;2.30;;;12.60;78.20;;;;;;5044337;28;20032;-83
2022/05/31 05:46:23;;;;;;;4.05;2.40;;;12.60;78.00;;;;;;5043324;28;20091;-85
2022/05/31 05:48:49;;;;;;;4.15;2.67;;;12.70;78.00;;;;;;5043395;28;20021;-84
2022/05/31 05:51:18;;;;;;;3.20;2.70;;;12.70;78.50;;;;;;5030640;28;20595;-83
2022/05/31 05:53:44;;;;;;;3.95;2.65;;;12.70;78.10;;;;;;5040137;28;20086;-85
2022/05/31 05:56:10;;;;;;;4.78;2.42;;;12.60;78.10;;;;;;5044708;28;20047;-84
2022/05/31 05:58:36;;;;;;;3.80;2.50;;;12.60;78.20;;;;;;5045786;28;20021;-85
2022/05/31 06:01:03;;;;;;;2.72;2.53;;;12.60;78.30;;;;;;5044507;28;20098;-85
2022/05/31 06:03:37;;;;;;;4.30;2.58;;;12.60;78.50;;;;;;5044859;28;20032;-85
2022/05/31 06:06:03;;;;;;;2.90;2.33;;;12.60;78.70;;;;;;5044492;28;20036;-85
2022/05/31 06:08:38;;;;;;;2.60;2.40;;;12.60;78.70;;;;;;5043626;28;20036;-85
2022/05/31 06:11:30;;;;;;;4.70;2.63;;;12.70;79.10;;;;;;5044724;28;20029;-85
2022/05/31 06:14:23;;;;;;;2.90;2.60;;;12.70;79.10;;;;;;5043788;28;20025;-84
2022/05/31 06:16:54;;;;;;;3.85;2.45;;;12.70;79.30;;;;;;5043072;28;20481;-84
2022/05/31 06:19:25;;;;;;;7.53;2.60;;;12.80;79.40;;;;;;5043228;28;20024;-85
2022/05/31 06:21:53;;;;;;;4.60;2.50;;;12.80;79.30;;;;;;5054416;28;20031;-84
2022/05/31 06:24:20;;;;;;;3.97;2.47;;;12.90;79.40;;;;;;5043138;28;20276;-84
2022/05/31 06:26:46;;;;;;;3.65;2.30;;;13.00;79.60;;;;;;5043049;28;20067;-85
2022/05/31 06:29:11;;;;;;;3.10;2.47;;;13.20;79.80;;;;;;5034700;28;20025;-84
2022/05/31 06:31:38;;;;;;;5.05;2.70;;;13.30;79.60;;;;;;5041853;28;20036;-84
2022/05/31 06:34:04;;;;;;;4.32;2.60;;;13.40;79.70;;;;;;5042339;28;20057;-85
2022/05/31 06:36:30;;;;;;;4.32;2.60;;;13.60;79.80;;;;;;5041285;28;20098;-84
2022/05/31 06:38:56;;;;;;;3.25;2.95;;;13.70;79.70;;;;;;5039905;28;20021;-85
2022/05/31 06:41:21;;;;;;;5.70;2.67;;;13.80;79.70;;;;;;5030070;28;20044;-85
2022/05/31 06:43:47;;;;;;;4.90;2.58;;;13.90;79.80;;;;;;5024963;28;20109;-85
2022/05/31 06:46:13;;;;;;;3.42;2.70;;;14.00;79.70;;;;;;5024744;28;20503;-85
2022/05/31 06:48:39;;;;;;;3.88;2.47;;;14.20;79.60;;;;;;5024670;28;20029;-84
2022/05/31 06:51:06;;;;;;;5.47;2.45;;;14.40;79.20;;;;;;5035560;28;20087;-86
2022/05/31 06:58:50;;;;;;;5.03;2.50;;;14.80;79.10;;;;;;5063086;28;20021;-84
2022/05/31 07:01:16;;;;;;;4.88;2.55;;;14.90;79.00;;;;;;5043527;28;20029;-84
2022/05/31 07:03:42;;;;;;;3.25;2.75;;;15.10;78.90;;;;;;5044080;28;20120;-85
2022/05/31 07:06:07;;;;;;;4.43;2.45;;;15.30;78.90;;;;;;5062634;28;20029;-85
2022/05/31 07:08:33;;;;;;;4.93;2.40;;;15.50;78.80;;;;;;5043942;28;20025;-85
2022/05/31 07:11:00;;;;;;;3.63;2.20;;;15.60;78.40;;;;;;5044013;28;20031;-85
2022/05/31 07:13:26;;;;;;;5.75;2.00;;;15.70;78.40;;;;;;5044390;28;20451;-85
2022/05/31 07:15:52;;;;;;;2.72;1.85;;;16.00;78.10;;;;;;5044397;28;20025;-85
2022/05/31 07:18:19;;;;;;;1.88;1.67;;;16.10;78.20;;;;;;5045871;28;20482;-86
2022/05/31 07:20:45;;;;;;;2.15;1.70;;;16.30;78.10;;;;;;5041013;28;20100;-85
2022/05/31 07:23:11;;;;;;;1.50;1.40;;;16.70;77.70;;;;;;5030843;28;20036;-86
2022/05/31 07:25:37;;;;;;;2.75;1.58;;;16.80;77.40;;;;;;5030732;28;20029;-84
2022/05/31 07:28:03;;;;;;;3.05;1.77;;;17.00;77.10;;;;;;5025311;28;20022;-86
2022/05/31 07:30:29;;;;;;;1.70;1.60;;;17.10;77.10;;;;;;5024459;28;20035;-85
2022/05/31 07:32:54;;;;;;;1.83;1.50;;;17.20;77.10;;;;;;5024755;28;20101;-85
2022/05/31 07:35:20;;;;;;;2.42;1.40;;;17.50;76.80;;;;;;5023586;28;20025;-86
2022/05/31 07:37:46;;;;;;;3.80;1.20;;;17.80;76.20;;;;;;5023437;28;20026;-85
2022/05/31 07:40:11;;;;;;;1.30;1.20;;;18.10;75.80;;;;;;5024010;28;20026;-86
2022/05/31 07:42:37;;;;;;;2.78;1.40;;;18.30;75.60;;;;;;5060806;28;20021;-86
2022/05/31 07:45:04;;;;;;;3.40;1.30;;;18.40;75.30;;;;;;5047014;28;20068;-86
2022/05/31 07:47:30;;;;;;;2.15;1.15;;;18.70;74.70;;;;;;5048081;28;20025;-86
2022/05/31 07:49:56;;;;;;;3.28;1.55;;;18.90;74.30;;;;;;5047865;28;20120;-85
2022/05/31 07:52:22;;;;;;;3.42;0.93;;;19.30;73.80;;;;;;5035563;28;20051;-85
2022/05/31 07:54:48;;;;;;;1.88;0.80;;;19.50;73.30;;;;;;5046454;28;20085;-85
2022/05/31 07:59:57;;;;;;;1.73;0.77;;;19.80;72.20;;;;;;5064759;28;20071;-86
2022/05/31 08:02:23;;;;;;;1.73;0.98;;;20.00;71.30;;;;;;5063893;28;20471;-86
2022/05/31 08:04:49;;;;;;;1.85;1.00;;;20.30;71.20;;;;;;5045814;28;20029;-86
2022/05/31 08:07:14;;;;;;;3.22;0.80;;;20.50;70.60;;;;;;5063686;28;20029;-85
2022/05/31 08:09:40;;;;;;;1.30;0.70;;;20.70;69.70;;;;;;5045822;28;20179;-86
2022/05/31 08:12:10;;;;;;;1.25;0.77;;;21.00;69.50;;;;;;5045542;28;20048;-86
2022/05/31 08:14:35;;;;;;;1.33;0.63;;;21.20;68.60;;;;;;5063890;28;20035;-86
2022/05/31 08:17:03;;;;;;;0.77;0.77;;;21.40;68.70;;;;;;5062116;28;20036;-87
2022/05/31 08:19:29;;;;;;;1.75;0.82;;;21.50;67.10;;;;;;5044158;28;20029;-86
2022/05/31 08:21:56;;;;;;;1.17;0.70;;;21.60;67.00;;;;;;5036027;28;20121;-87
2022/05/31 08:24:21;;;;;;;3.80;0.70;;;21.80;66.60;;;;;;5061855;28;20517;-87
2022/05/31 08:26:47;;;;;;;0.70;0.70;;;22.00;66.00;;;;;;5051415;28;20033;-86
2022/05/31 08:29:13;;;;;;;2.08;0.90;;;22.20;64.80;;;;;;5023545;28;20029;-85
2022/05/31 08:31:38;;;;;;;1.90;0.68;;;22.30;63.90;;;;;;5023926;28;20028;-86
2022/05/31 08:34:05;;;;;;;1.27;0.80;;;22.30;63.40;;;;;;5022578;28;20032;-87
2022/05/31 08:36:31;;;;;;;2.13;1.00;;;22.30;63.80;;;;;;5023309;28;20040;-86
2022/05/31 08:38:56;;;;;;;2.30;0.70;;;22.40;64.40;;;;;;5034182;28;20045;-84
2022/05/31 08:41:33;;;;;;;3.28;1.20;;;22.70;63.50;;;;;;5044358;28;20498;-84
2022/05/31 08:44:27;;;;;;;2.55;1.17;;;22.70;62.10;;;;;;5044207;28;20029;-85
2022/05/31 08:46:56;;;;;;;2.03;0.98;;;22.70;62.10;;;;;;5042906;28;20032;-85
2022/05/31 08:52:37;;;;;;;2.70;0.82;;;22.80;61.10;;;;;;5045930;28;20094;-85
2022/05/31 08:58:09;;;;;;;0.57;0.57;;;22.70;60.20;;;;;;5039377;28;20403;-85
2022/05/31 09:00:42;;;;;;;2.65;0.60;;;22.90;60.20;;;;;;5019811;28;20029;-85
2022/05/31 09:03:17;;;;;;;1.17;0.60;;;23.10;59.20;;;;;;5020079;28;20025;-84
2022/05/31 09:05:50;;;;;;;1.88;0.90;;;23.30;59.90;;;;;;5037695;28;20100;-85
2022/05/31 09:08:30;;;;;;;0.90;0.60;;;23.70;60.00;;;;;;5017959;28;20025;-86
2022/05/31 09:11:13;;;;;;;0.98;0.60;;;24.20;59.40;;;;;;5019244;28;20026;-86
2022/05/31 09:14:05;;;;;;;1.40;0.55;;;24.70;58.60;;;;;;5023657;28;20025;-86
2022/05/31 09:16:53;;;;;;;0.95;0.55;;;24.90;56.80;;;;;;5025406;28;20108;-86
2022/05/31 09:19:29;;;;;;;0.55;0.55;;;24.80;55.90;;;;;;5024960;28;20128;-85
2022/05/31 09:21:55;;;;;;;1.73;0.60;;;25.10;55.30;;;;;;5033800;28;20056;-87
2022/05/31 09:24:22;;;;;;;2.63;0.60;;;25.00;55.60;;;;;;5043226;28;20437;-86
2022/05/31 09:26:53;;;;;;;1.15;0.70;;;24.90;55.20;;;;;;5044426;28;20032;-87
2022/05/31 09:29:27;;;;;;;1.38;0.75;;;24.70;54.00;;;;;;5043316;28;20029;-86
2022/05/31 09:32:21;;;;;;;3.03;0.68;;;24.40;54.10;;;;;;5042624;28;20029;-85
2022/05/31 09:35:21;;;;;;;0.73;0.73;;;24.50;53.50;;;;;;5043724;28;20379;-86
2022/05/31 09:37:58;;;;;;;4.82;0.52;;;23.90;53.00;;;;;;5042741;28;20021;-86
2022/05/31 09:40:38;;;;;;;0.70;0.70;;;23.60;53.30;;;;;;5059288;28;20105;-86
2022/05/31 09:43:13;;;;;;;1.20;0.82;;;23.40;53.20;;;;;;5022073;28;20026;-85
2022/05/31 09:45:56;;;;;;;3.17;0.70;;;23.10;53.10;;;;;;5031690;28;20120;-85
2022/05/31 09:48:21;;;;;;;3.78;0.88;;;23.80;52.80;;;;;;5041931;28;20035;-86
2022/05/31 09:50:47;;;;;;;2.88;0.70;;;24.50;52.20;;;;;;5036579;28;20167;-86
2022/05/31 09:59:12;;;;;;;1.00;0.68;;;26.50;50.60;;;;;;5059186;28;20032;-87
2022/05/31 10:01:45;;;;;;;1.55;0.80;;;27.40;49.70;;;;;;5059749;28;20029;-86
2022/05/31 10:04:26;;;;;;;2.50;0.70;;;27.50;49.90;;;;;;5059483;28;20025;-86
2022/05/31 10:06:55;;;;;;;0.60;0.50;;;27.00;48.90;;;;;;5040160;28;20483;-86
2022/05/31 10:09:28;;;;;;;2.50;0.50;;;28.60;48.40;;;;;;5039763;28;20055;-86
2022/05/31 10:12:04;;;;;;;4.45;0.77;;;28.20;47.40;;;;;;5040494;28;20025;-87
2022/05/31 10:14:34;;;;;;;1.00;0.57;;;27.50;47.90;;;;;;5058600;28;20024;-85
2022/05/31 10:17:42;;;;;;;1.25;0.77;;;28.30;46.30;;;;;;5058306;28;20028;-86
2022/05/31 10:20:09;;;;;;;2.40;0.60;;;28.20;46.20;;;;;;5016086;28;20036;-86
2022/05/31 10:22:36;;;;;;;1.55;0.60;;;27.50;47.20;;;;;;5032381;28;20029;-86
2022/05/31 10:25:57;;;;;;;1.42;0.70;;;26.50;47.80;;;;;;5040750;28;20394;-86
2022/05/31 10:28:30;;;;;;;0.98;0.80;;;25.70;48.50;;;;;;4977551;28;20083;-86
2022/05/31 10:31:18;;;;;;;4.75;2.35;;;25.40;48.60;;;;;;5029865;28;20033;-86
2022/05/31 10:33:55;;;;;;;0.85;0.50;;;26.00;48.20;;;;;;5039523;28;20028;-86
2022/05/31 10:36:23;;;;;;;0.70;0.70;;;27.10;47.40;;;;;;5039128;28;20032;-86
2022/05/31 10:38:50;;;;;;;0.95;0.90;;;27.60;47.30;;;;;;5027008;28;20428;-86
2022/05/31 10:41:32;;;;;;;0.57;0.52;;;27.90;46.50;;;;;;5048411;28;20029;-85
2022/05/31 10:44:12;;;;;;;1.17;0.75;;;28.00;46.70;;;;;;5023205;28;20017;-86
2022/05/31 10:46:38;;;;;;;2.08;0.63;;;27.90;47.20;;;;;;5030471;28;20025;-84
2022/05/31 10:49:19;;;;;;;2.75;0.60;;;27.60;47.70;;;;;;5044776;28;20033;-85
2022/05/31 11:38:18;;;;;;;39.30;29.45;;;24.70;48.60;;;;;;5075873;28;20082;-88
2022/05/31 11:40:47;;;;;;;2.30;1.20;;;24.60;48.80;;;;;;5056927;28;20507;-89
2022/05/31 11:43:24;;;;;;;2.17;0.80;;;24.50;49.50;;;;;;5056378;28;20033;-90
2022/05/31 11:46:48;;;;;;;1.98;0.90;;;24.40;50.20;;;;;;5056179;28;20020;-90
2022/05/31 11:49:44;;;;;;;1.67;0.82;;;24.30;49.60;;;;;;4957753;28;20077;-90
2022/05/31 11:52:20;;;;;;;1.50;0.93;;;24.10;50.40;;;;;;4938788;29;20514;-89
2022/05/31 11:55:26;;;;;;;1.00;0.77;;;23.90;50.20;;;;;;4995835;28;20124;-90
2022/05/31 11:58:06;;;;;;;1.48;0.80;;;23.90;50.70;;;;;;5016697;28;20450;-89
2022/05/31 12:00:44;;;;;;;1.15;0.77;;;23.90;50.10;;;;;;5034258;28;20014;-89
2022/05/31 12:03:17;;;;;;;1.15;0.70;;;23.70;49.60;;;;;;5024929;28;20025;-89
2022/05/31 12:05:50;;;;;;;2.30;0.88;;;23.60;49.80;;;;;;5035630;28;20120;-89
2022/05/31 12:08:23;;;;;;;3.80;1.10;;;23.60;50.50;;;;;;5054847;28;20056;-89
2022/05/31 12:10:53;;;;;;;22.52;16.55;;;23.70;50.40;;;;;;5037888;28;20070;-89
2022/05/31 12:13:20;;;;;;;2.00;1.00;;;23.70;51.00;;;;;;5037543;28;20117;-89
2022/05/31 12:15:52;;;;;;;2.78;1.05;;;23.80;50.80;;;;;;5036933;28;20028;-90
2022/05/31 12:18:35;;;;;;;2.15;0.90;;;23.90;50.70;;;;;;5042532;28;20071;-87
2022/05/31 12:21:23;;;;;;;2.75;2.08;;;23.80;50.90;;;;;;5044086;28;20056;-90
2022/05/31 12:24:15;;;;;;;3.15;0.80;;;23.80;50.00;;;;;;5035885;28;20021;-89
2022/05/31 12:26:52;;;;;;;1.95;0.82;;;23.60;49.80;;;;;;5036274;28;20017;-89
2022/05/31 12:29:22;;;;;;;2.97;1.02;;;23.50;50.10;;;;;;5053263;28;20033;-88
2022/05/31 12:31:48;;;;;;;1.67;0.70;;;23.30;50.10;;;;;;5053212;28;20436;-89
2022/05/31 12:34:20;;;;;;;3.92;0.90;;;23.30;49.80;;;;;;5035618;28;20079;-87
2022/05/31 12:37:11;;;;;;;1.27;0.80;;;23.10;50.10;;;;;;5053551;28;20051;-89
2022/05/31 12:39:38;;;;;;;1.52;1.05;;;23.00;50.60;;;;;;5048518;28;20037;-89
2022/05/31 12:42:13;;;;;;;1.52;0.70;;;23.00;50.30;;;;;;5055577;28;20025;-89
2022/05/31 12:44:40;;;;;;;3.53;1.13;;;23.00;50.30;;;;;;5046088;28;20037;-89
2022/05/31 12:47:34;;;;;;;2.83;1.00;;;23.00;50.80;;;;;;5035624;28;20029;-89
2022/05/31 12:50:04;;;;;;;1.27;0.80;;;23.00;50.80;;;;;;5035904;28;20031;-89
2022/05/31 12:55:26;;;;;;;2.15;1.08;;;22.90;50.60;;;;;;5052498;28;20029;-88
2022/05/31 12:58:28;;;;;;;3.85;1.10;;;22.80;50.70;;;;;;4986602;28;20064;-89
2022/05/31 13:01:07;;;;;;;1.95;1.00;;;22.80;50.50;;;;;;4999060;28;20096;-89
2022/05/31 13:03:32;;;;;;;1.92;0.80;;;22.80;50.00;;;;;;5015587;28;20033;-89
2022/05/31 13:06:26;;;;;;;7.22;1.13;;;22.80;50.20;;;;;;5014714;28;20029;-89
2022/05/31 13:09:00;;;;;;;2.92;1.08;;;22.70;50.30;;;;;;5032983;28;20025;-89
2022/05/31 13:19:57;;;;;;;5.07;0.80;;;22.70;50.00;;;;;;5052635;28;20544;-88
2022/05/31 13:22:23;;;;;;;1.77;0.80;;;22.70;50.10;;;;;;5034517;28;20029;-88
2022/05/31 13:25:01;;;;;;;0.88;0.88;;;22.70;50.10;;;;;;5033887;28;20025;-88
2022/05/31 13:27:30;;;;;;;1.75;0.82;;;22.70;49.80;;;;;;5034780;28;20032;-86
2022/05/31 13:30:11;;;;;;;1.58;0.70;;;22.80;49.90;;;;;;5052573;28;20053;-88
2022/05/31 13:32:38;;;;;;;0.85;0.70;;;22.70;49.40;;;;;;5034676;28;20025;-88
2022/05/31 13:35:26;;;;;;;3.85;0.85;;;22.70;49.50;;;;;;5034041;28;20017;-87
2022/05/31 13:38:00;;;;;;;3.50;1.15;;;22.60;49.80;;;;;;5030703;28;20033;-88
2022/05/31 13:40:32;;;;;;;2.53;0.90;;;22.60;49.70;;;;;;5025554;28;20207;-88
2022/05/31 13:42:59;;;;;;;2.38;0.80;;;22.60;49.90;;;;;;5034497;28;20025;-86
2022/05/31 13:45:28;;;;;;;2.22;0.80;;;22.70;50.00;;;;;;5033664;28;20029;-88
2022/05/31 13:47:58;;;;;;;1.80;0.75;;;22.70;49.90;;;;;;5034560;28;20448;-88
2022/05/31 13:50:33;;;;;;;3.42;0.95;;;22.70;49.80;;;;;;5052347;28;20059;-88
2022/05/31 13:53:03;;;;;;;0.88;0.70;;;22.70;49.40;;;;;;5033640;28;20231;-87
2022/05/31 13:55:29;;;;;;;2.80;0.90;;;22.60;49.70;;;;;;5033489;28;20025;-88
2022/05/31 13:57:58;;;;;;;1.77;0.95;;;22.60;50.00;;;;;;5034251;28;20028;-88
2022/05/31 14:00:48;;;;;;;2.95;0.82;;;22.60;49.70;;;;;;5051760;28;20028;-88
2022/05/31 14:03:24;;;;;;;3.88;0.90;;;22.60;49.30;;;;;;5053824;28;20052;-88
2022/05/31 14:05:56;;;;;;;0.98;0.80;;;22.60;49.80;;;;;;5053300;28;20024;-88
2022/05/31 14:08:29;;;;;;;;;;;22.50;49.60;;;;;;5054155;28;20612;-88
2022/05/31 14:10:54;;;;;;;1.02;0.80;;;22.40;50.10;;;;;;5050376;28;19984;-88
2022/05/31 14:13:25;;;;;;;1.75;0.80;;;22.40;49.70;;;;;;5026421;28;20111;-87
2022/05/31 14:16:11;;;;;;;2.10;0.70;;;22.40;49.90;;;;;;5022689;28;20099;-88
2022/05/31 14:18:50;;;;;;;1.40;0.77;;;22.40;50.10;;;;;;5033635;28;20159;-88
2022/05/31 14:21:19;;;;;;;2.33;0.93;;;22.50;49.90;;;;;;5033807;28;20481;-88
2022/05/31 14:23:45;;;;;;;1.80;0.70;;;22.50;49.30;;;;;;5033543;28;20242;-88
2022/05/31 14:26:11;;;;;;;3.72;0.70;;;22.50;49.90;;;;;;5033172;28;20021;-88
2022/05/31 14:29:12;;;;;;;3.65;1.45;;;22.60;50.20;;;;;;5033542;28;20377;-88